Terminal Aerodrome Forecast
Issued by NWS

Home | Current Version | Previous Version | Text Only | Print | Product List | Glossary Off
Versions: 1 2 3 4 5 6 7 8 9 10 11 12 13 14 15

000
FTUS43 KTOP 031600 AAC
TAFFOE
TAF AMD
KFOE 031657Z 0317/0412 26014G20KT P6SM OVC025
     FM032100 34016G23KT P6SM BKN030
     FM040200 36014KT P6SM BKN040=

USA.gov is the U.S. government's official web portal to all federal, state and local government web resources and services.